sensor_id;sensor_type;location;lat;lon;timestamp;P1;durP1;ratioP1;P2;durP2;ratioP2
29430;SDS011;16404;49.902;10.074;2022-11-02T00:01:43;8.20;;;3.88;;
29430;SDS011;16404;49.902;10.074;2022-11-02T00:04:27;10.55;;;4.07;;
29430;SDS011;16404;49.902;10.074;2022-11-02T00:07:12;7.50;;;3.80;;
29430;SDS011;16404;49.902;10.074;2022-11-02T00:09:56;8.32;;;3.38;;
29430;SDS011;16404;49.902;10.074;2022-11-02T00:12:41;6.00;;;3.53;;
29430;SDS011;16404;49.902;10.074;2022-11-02T00:15:26;7.30;;;3.47;;
29430;SDS011;16404;49.902;10.074;2022-11-02T00:18:13;10.10;;;3.50;;
29430;SDS011;16404;49.902;10.074;2022-11-02T00:23:44;5.82;;;3.17;;
29430;SDS011;16404;49.902;10.074;2022-11-02T00:26:30;7.05;;;3.00;;
29430;SDS011;16404;49.902;10.074;2022-11-02T00:29:17;7.05;;;2.75;;
29430;SDS011;16404;49.902;10.074;2022-11-02T00:32:01;7.32;;;3.03;;
29430;SDS011;16404;49.902;10.074;2022-11-02T00:34:46;5.28;;;2.97;;
29430;SDS011;16404;49.902;10.074;2022-11-02T00:37:30;3.88;;;2.65;;
29430;SDS011;16404;49.902;10.074;2022-11-02T00:40:15;5.43;;;2.85;;
29430;SDS011;16404;49.902;10.074;2022-11-02T00:43:00;5.28;;;2.80;;
29430;SDS011;16404;49.902;10.074;2022-11-02T00:45:44;6.65;;;3.40;;
29430;SDS011;16404;49.902;10.074;2022-11-02T00:48:29;10.43;;;2.97;;
29430;SDS011;16404;49.902;10.074;2022-11-02T00:51:14;5.13;;;2.60;;
29430;SDS011;16404;49.902;10.074;2022-11-02T00:54:00;11.80;;;2.95;;
29430;SDS011;16404;49.902;10.074;2022-11-02T00:59:30;13.15;;;3.75;;
29430;SDS011;16404;49.902;10.074;2022-11-02T01:02:14;11.48;;;3.97;;
29430;SDS011;16404;49.902;10.074;2022-11-02T01:04:59;13.95;;;4.40;;
29430;SDS011;16404;49.902;10.074;2022-11-02T01:07:43;13.50;;;5.47;;
29430;SDS011;16404;49.902;10.074;2022-11-02T01:10:28;10.85;;;4.90;;
29430;SDS011;16404;49.902;10.074;2022-11-02T01:13:13;7.55;;;3.60;;
29430;SDS011;16404;49.902;10.074;2022-11-02T01:15:57;7.38;;;3.47;;
29430;SDS011;16404;49.902;10.074;2022-11-02T01:18:42;11.90;;;3.90;;
29430;SDS011;16404;49.902;10.074;2022-11-02T01:21:27;8.15;;;3.53;;
29430;SDS011;16404;49.902;10.074;2022-11-02T01:24:12;12.35;;;4.13;;
29430;SDS011;16404;49.902;10.074;2022-11-02T01:26:56;6.97;;;3.42;;
29430;SDS011;16404;49.902;10.074;2022-11-02T01:29:41;8.07;;;3.22;;
29430;SDS011;16404;49.902;10.074;2022-11-02T01:32:27;14.00;;;3.75;;
29430;SDS011;16404;49.902;10.074;2022-11-02T01:35:13;9.20;;;3.38;;
29430;SDS011;16404;49.902;10.074;2022-11-02T01:37:57;7.70;;;4.05;;
29430;SDS011;16404;49.902;10.074;2022-11-02T01:43:28;8.23;;;2.97;;
29430;SDS011;16404;49.902;10.074;2022-11-02T01:46:16;9.05;;;3.95;;
29430;SDS011;16404;49.902;10.074;2022-11-02T01:49:05;10.27;;;3.45;;
29430;SDS011;16404;49.902;10.074;2022-11-02T01:52:37;10.73;;;4.20;;
29430;SDS011;16404;49.902;10.074;2022-11-02T01:55:12;7.53;;;2.90;;
29430;SDS011;16404;49.902;10.074;2022-11-02T01:58:12;6.13;;;3.05;;
29430;SDS011;16404;49.902;10.074;2022-11-02T02:00:57;10.25;;;2.92;;
29430;SDS011;16404;49.902;10.074;2022-11-02T02:06:27;8.90;;;3.80;;
29430;SDS011;16404;49.902;10.074;2022-11-02T02:09:12;7.35;;;3.35;;
29430;SDS011;16404;49.902;10.074;2022-11-02T02:14:41;10.93;;;3.67;;
29430;SDS011;16404;49.902;10.074;2022-11-02T02:20:48;8.25;;;3.30;;
29430;SDS011;16404;49.902;10.074;2022-11-02T02:23:48;11.48;;;3.85;;
29430;SDS011;16404;49.902;10.074;2022-11-02T02:29:51;9.27;;;3.75;;
29430;SDS011;16404;49.902;10.074;2022-11-02T02:32:48;8.15;;;3.45;;
29430;SDS011;16404;49.902;10.074;2022-11-02T02:35:47;9.18;;;3.47;;
29430;SDS011;16404;49.902;10.074;2022-11-02T02:41:55;6.28;;;3.65;;
29430;SDS011;16404;49.902;10.074;2022-11-02T02:44:58;8.65;;;3.63;;
29430;SDS011;16404;49.902;10.074;2022-11-02T02:47:48;10.32;;;3.30;;
29430;SDS011;16404;49.902;10.074;2022-11-02T02:53:51;10.45;;;3.60;;
29430;SDS011;16404;49.902;10.074;2022-11-02T02:56:46;10.60;;;3.25;;
29430;SDS011;16404;49.902;10.074;2022-11-02T02:59:38;10.85;;;3.20;;
29430;SDS011;16404;49.902;10.074;2022-11-02T03:02:27;5.60;;;2.88;;
29430;SDS011;16404;49.902;10.074;2022-11-02T03:05:24;8.05;;;2.88;;
29430;SDS011;16404;49.902;10.074;2022-11-02T03:08:11;7.85;;;3.38;;
29430;SDS011;16404;49.902;10.074;2022-11-02T03:22:29;9.73;;;3.13;;
29430;SDS011;16404;49.902;10.074;2022-11-02T03:25:28;9.30;;;3.25;;
29430;SDS011;16404;49.902;10.074;2022-11-02T03:32:04;13.25;;;3.45;;
29430;SDS011;16404;49.902;10.074;2022-11-02T03:35:14;7.97;;;3.45;;
29430;SDS011;16404;49.902;10.074;2022-11-02T03:38:16;9.30;;;3.30;;
29430;SDS011;16404;49.902;10.074;2022-11-02T03:41:10;8.75;;;3.17;;
29430;SDS011;16404;49.902;10.074;2022-11-02T03:44:02;11.80;;;3.50;;
29430;SDS011;16404;49.902;10.074;2022-11-02T03:46:51;8.07;;;3.17;;
29430;SDS011;16404;49.902;10.074;2022-11-02T03:49:42;12.18;;;3.35;;
29430;SDS011;16404;49.902;10.074;2022-11-02T03:52:30;14.57;;;3.28;;
29430;SDS011;16404;49.902;10.074;2022-11-02T03:55:18;14.50;;;3.35;;
29430;SDS011;16404;49.902;10.074;2022-11-02T03:58:08;12.88;;;2.90;;
29430;SDS011;16404;49.902;10.074;2022-11-02T04:00:56;20.50;;;3.30;;
29430;SDS011;16404;49.902;10.074;2022-11-02T04:03:45;11.15;;;3.00;;
29430;SDS011;16404;49.902;10.074;2022-11-02T04:06:31;15.68;;;3.53;;
29430;SDS011;16404;49.902;10.074;2022-11-02T04:09:16;7.15;;;2.95;;
29430;SDS011;16404;49.902;10.074;2022-11-02T04:12:02;8.35;;;3.00;;
29430;SDS011;16404;49.902;10.074;2022-11-02T04:15:05;17.75;;;3.60;;
29430;SDS011;16404;49.902;10.074;2022-11-02T04:17:51;7.90;;;2.97;;
29430;SDS011;16404;49.902;10.074;2022-11-02T04:20:54;12.68;;;3.00;;
29430;SDS011;16404;49.902;10.074;2022-11-02T04:23:39;13.30;;;3.15;;
29430;SDS011;16404;49.902;10.074;2022-11-02T04:26:42;12.27;;;3.00;;
29430;SDS011;16404;49.902;10.074;2022-11-02T04:29:27;7.97;;;2.83;;
29430;SDS011;16404;49.902;10.074;2022-11-02T04:32:11;16.05;;;3.85;;
29430;SDS011;16404;49.902;10.074;2022-11-02T04:34:56;12.60;;;4.30;;
29430;SDS011;16404;49.902;10.074;2022-11-02T04:37:41;15.75;;;4.28;;
29430;SDS011;16404;49.902;10.074;2022-11-02T04:40:47;10.88;;;3.45;;
29430;SDS011;16404;49.902;10.074;2022-11-02T04:43:52;16.80;;;4.03;;
29430;SDS011;16404;49.902;10.074;2022-11-02T04:46:38;17.13;;;4.40;;
29430;SDS011;16404;49.902;10.074;2022-11-02T04:49:25;16.77;;;4.90;;
29430;SDS011;16404;49.902;10.074;2022-11-02T04:52:10;14.98;;;4.63;;
29430;SDS011;16404;49.902;10.074;2022-11-02T04:55:01;18.13;;;6.43;;
29430;SDS011;16404;49.902;10.074;2022-11-02T04:57:45;21.00;;;7.35;;
29430;SDS011;16404;49.902;10.074;2022-11-02T05:00:30;22.13;;;6.38;;
29430;SDS011;16404;49.902;10.074;2022-11-02T05:06:01;14.30;;;3.67;;
29430;SDS011;16404;49.902;10.074;2022-11-02T05:08:47;12.25;;;3.58;;
29430;SDS011;16404;49.902;10.074;2022-11-02T05:11:32;8.05;;;3.22;;
29430;SDS011;16404;49.902;10.074;2022-11-02T05:14:17;11.20;;;2.63;;
29430;SDS011;16404;49.902;10.074;2022-11-02T05:17:02;12.27;;;3.17;;
29430;SDS011;16404;49.902;10.074;2022-11-02T05:19:46;7.70;;;2.92;;
29430;SDS011;16404;49.902;10.074;2022-11-02T05:22:31;4.50;;;2.47;;
29430;SDS011;16404;49.902;10.074;2022-11-02T05:25:15;9.82;;;2.88;;
29430;SDS011;16404;49.902;10.074;2022-11-02T05:28:00;9.70;;;2.97;;
29430;SDS011;16404;49.902;10.074;2022-11-02T05:30:45;7.07;;;2.92;;
29430;SDS011;16404;49.902;10.074;2022-11-02T05:33:29;6.65;;;2.83;;
29430;SDS011;16404;49.902;10.074;2022-11-02T05:36:17;12.05;;;2.63;;
29430;SDS011;16404;49.902;10.074;2022-11-02T05:39:04;9.80;;;2.67;;
29430;SDS011;16404;49.902;10.074;2022-11-02T05:41:49;5.50;;;2.42;;
29430;SDS011;16404;49.902;10.074;2022-11-02T05:44:33;9.20;;;3.13;;
29430;SDS011;16404;49.902;10.074;2022-11-02T05:47:18;11.00;;;3.50;;
29430;SDS011;16404;49.902;10.074;2022-11-02T05:50:03;14.10;;;3.22;;
29430;SDS011;16404;49.902;10.074;2022-11-02T05:55:32;6.88;;;2.80;;
29430;SDS011;16404;49.902;10.074;2022-11-02T05:58:17;8.60;;;2.85;;
29430;SDS011;16404;49.902;10.074;2022-11-02T06:01:03;5.30;;;2.65;;
29430;SDS011;16404;49.902;10.074;2022-11-02T06:03:49;9.25;;;3.05;;
29430;SDS011;16404;49.902;10.074;2022-11-02T06:06:33;11.70;;;3.50;;
29430;SDS011;16404;49.902;10.074;2022-11-02T06:09:18;6.43;;;2.90;;
29430;SDS011;16404;49.902;10.074;2022-11-02T06:12:03;8.77;;;2.90;;
29430;SDS011;16404;49.902;10.074;2022-11-02T06:14:47;10.20;;;3.05;;
29430;SDS011;16404;49.902;10.074;2022-11-02T06:17:36;10.98;;;4.28;;
29430;SDS011;16404;49.902;10.074;2022-11-02T06:20:21;12.85;;;6.50;;
29430;SDS011;16404;49.902;10.074;2022-11-02T06:23:06;17.17;;;10.35;;
29430;SDS011;16404;49.902;10.074;2022-11-02T06:25:51;12.18;;;5.70;;
29430;SDS011;16404;49.902;10.074;2022-11-02T06:28:36;8.48;;;4.32;;
29430;SDS011;16404;49.902;10.074;2022-11-02T06:31:20;18.85;;;3.78;;
29430;SDS011;16404;49.902;10.074;2022-11-02T06:34:05;22.40;;;4.97;;
29430;SDS011;16404;49.902;10.074;2022-11-02T06:36:50;9.80;;;3.92;;
29430;SDS011;16404;49.902;10.074;2022-11-02T06:39:35;12.57;;;3.40;;
29430;SDS011;16404;49.902;10.074;2022-11-02T06:42:19;20.25;;;4.22;;
29430;SDS011;16404;49.902;10.074;2022-11-02T06:45:04;10.18;;;3.00;;
29430;SDS011;16404;49.902;10.074;2022-11-02T06:47:49;9.63;;;2.67;;
29430;SDS011;16404;49.902;10.074;2022-11-02T06:50:34;13.85;;;3.75;;
29430;SDS011;16404;49.902;10.074;2022-11-02T06:53:18;16.75;;;3.05;;
29430;SDS011;16404;49.902;10.074;2022-11-02T06:56:03;9.15;;;2.80;;
29430;SDS011;16404;49.902;10.074;2022-11-02T06:58:48;12.15;;;2.55;;
29430;SDS011;16404;49.902;10.074;2022-11-02T07:01:32;18.33;;;3.42;;
29430;SDS011;16404;49.902;10.074;2022-11-02T07:04:17;14.43;;;2.83;;
29430;SDS011;16404;49.902;10.074;2022-11-02T07:07:02;15.50;;;3.20;;
29430;SDS011;16404;49.902;10.074;2022-11-02T07:09:46;14.27;;;2.47;;
29430;SDS011;16404;49.902;10.074;2022-11-02T07:15:16;11.75;;;3.33;;
29430;SDS011;16404;49.902;10.074;2022-11-02T07:18:00;13.75;;;3.22;;
29430;SDS011;16404;49.902;10.074;2022-11-02T07:20:45;27.02;;;4.28;;
29430;SDS011;16404;49.902;10.074;2022-11-02T07:23:30;7.43;;;2.67;;
29430;SDS011;16404;49.902;10.074;2022-11-02T07:26:14;17.60;;;3.42;;
29430;SDS011;16404;49.902;10.074;2022-11-02T07:28:59;10.27;;;2.97;;
29430;SDS011;16404;49.902;10.074;2022-11-02T07:31:44;11.75;;;2.55;;
29430;SDS011;16404;49.902;10.074;2022-11-02T07:34:28;11.50;;;2.70;;
29430;SDS011;16404;49.902;10.074;2022-11-02T07:37:13;9.05;;;2.55;;
29430;SDS011;16404;49.902;10.074;2022-11-02T07:39:57;14.45;;;3.30;;
29430;SDS011;16404;49.902;10.074;2022-11-02T07:42:43;9.95;;;2.90;;
29430;SDS011;16404;49.902;10.074;2022-11-02T07:45:28;15.52;;;2.90;;
29430;SDS011;16404;49.902;10.074;2022-11-02T07:48:13;11.07;;;2.50;;
29430;SDS011;16404;49.902;10.074;2022-11-02T07:50:57;17.42;;;3.28;;
29430;SDS011;16404;49.902;10.074;2022-11-02T07:53:42;7.85;;;2.47;;
29430;SDS011;16404;49.902;10.074;2022-11-02T07:56:27;10.38;;;2.65;;
29430;SDS011;16404;49.902;10.074;2022-11-02T07:59:14;9.48;;;2.45;;
29430;SDS011;16404;49.902;10.074;2022-11-02T08:02:05;9.10;;;2.72;;
29430;SDS011;16404;49.902;10.074;2022-11-02T08:04:49;9.18;;;2.50;;
29430;SDS011;16404;49.902;10.074;2022-11-02T08:07:34;7.72;;;2.42;;
29430;SDS011;16404;49.902;10.074;2022-11-02T08:10:18;13.88;;;3.20;;
29430;SDS011;16404;49.902;10.074;2022-11-02T08:13:03;9.73;;;2.60;;
29430;SDS011;16404;49.902;10.074;2022-11-02T08:15:51;23.42;;;2.78;;
29430;SDS011;16404;49.902;10.074;2022-11-02T08:18:36;12.25;;;2.40;;
29430;SDS011;16404;49.902;10.074;2022-11-02T08:21:21;9.02;;;2.05;;
29430;SDS011;16404;49.902;10.074;2022-11-02T08:24:06;15.85;;;2.92;;
29430;SDS011;16404;49.902;10.074;2022-11-02T08:26:50;14.32;;;2.97;;
29430;SDS011;16404;49.902;10.074;2022-11-02T08:29:35;12.23;;;3.08;;
29430;SDS011;16404;49.902;10.074;2022-11-02T08:32:19;15.38;;;3.00;;
29430;SDS011;16404;49.902;10.074;2022-11-02T08:35:04;12.15;;;2.75;;
29430;SDS011;16404;49.902;10.074;2022-11-02T08:40:37;11.75;;;2.50;;
29430;SDS011;16404;49.902;10.074;2022-11-02T08:43:22;14.73;;;2.85;;
29430;SDS011;16404;49.902;10.074;2022-11-02T08:46:07;10.30;;;3.28;;
29430;SDS011;16404;49.902;10.074;2022-11-02T08:48:51;12.95;;;3.08;;
29430;SDS011;16404;49.902;10.074;2022-11-02T08:51:36;14.88;;;2.83;;
29430;SDS011;16404;49.902;10.074;2022-11-02T08:54:21;12.10;;;2.78;;
29430;SDS011;16404;49.902;10.074;2022-11-02T08:57:05;12.60;;;2.55;;
29430;SDS011;16404;49.902;10.074;2022-11-02T08:59:50;10.15;;;2.67;;
29430;SDS011;16404;49.902;10.074;2022-11-02T09:02:35;11.93;;;2.35;;
29430;SDS011;16404;49.902;10.074;2022-11-02T09:05:19;9.55;;;2.42;;
29430;SDS011;16404;49.902;10.074;2022-11-02T09:08:05;9.55;;;2.33;;
29430;SDS011;16404;49.902;10.074;2022-11-02T09:10:52;12.93;;;2.90;;
29430;SDS011;16404;49.902;10.074;2022-11-02T09:13:41;11.40;;;2.38;;
29430;SDS011;16404;49.902;10.074;2022-11-02T09:16:26;8.73;;;2.03;;
29430;SDS011;16404;49.902;10.074;2022-11-02T09:19:10;10.88;;;2.25;;
29430;SDS011;16404;49.902;10.074;2022-11-02T09:21:55;11.35;;;2.30;;
29430;SDS011;16404;49.902;10.074;2022-11-02T09:24:40;12.38;;;2.63;;
29430;SDS011;16404;49.902;10.074;2022-11-02T09:27:24;11.60;;;2.10;;
29430;SDS011;16404;49.902;10.074;2022-11-02T09:30:10;5.93;;;1.90;;
29430;SDS011;16404;49.902;10.074;2022-11-02T09:32:56;9.48;;;2.05;;
29430;SDS011;16404;49.902;10.074;2022-11-02T09:35:45;10.90;;;2.10;;
29430;SDS011;16404;49.902;10.074;2022-11-02T09:38:30;7.10;;;1.90;;
29430;SDS011;16404;49.902;10.074;2022-11-02T09:41:26;11.00;;;2.00;;
29430;SDS011;16404;49.902;10.074;2022-11-02T09:44:20;12.35;;;1.80;;
29430;SDS011;16404;49.902;10.074;2022-11-02T09:47:11;10.02;;;1.95;;
29430;SDS011;16404;49.902;10.074;2022-11-02T09:49:57;11.27;;;2.03;;
29430;SDS011;16404;49.902;10.074;2022-11-02T09:52:45;11.85;;;2.33;;
29430;SDS011;16404;49.902;10.074;2022-11-02T09:55:35;8.73;;;1.73;;
29430;SDS011;16404;49.902;10.074;2022-11-02T09:58:27;8.60;;;1.92;;
29430;SDS011;16404;49.902;10.074;2022-11-02T10:11:06;11.27;;;2.17;;
29430;SDS011;16404;49.902;10.074;2022-11-02T10:16:48;11.98;;;2.03;;
29430;SDS011;16404;49.902;10.074;2022-11-02T10:19:39;11.65;;;2.20;;
29430;SDS011;16404;49.902;10.074;2022-11-02T10:22:29;7.25;;;1.67;;
29430;SDS011;16404;49.902;10.074;2022-11-02T10:25:17;11.20;;;2.40;;
29430;SDS011;16404;49.902;10.074;2022-11-02T10:28:02;11.85;;;1.88;;
29430;SDS011;16404;49.902;10.074;2022-11-02T10:30:53;6.38;;;2.13;;
29430;SDS011;16404;49.902;10.074;2022-11-02T10:33:37;14.00;;;2.05;;
29430;SDS011;16404;49.902;10.074;2022-11-02T10:45:37;8.73;;;1.77;;
29430;SDS011;16404;49.902;10.074;2022-11-02T10:48:32;16.25;;;2.20;;
29430;SDS011;16404;49.902;10.074;2022-11-02T10:51:20;11.70;;;2.85;;
29430;SDS011;16404;49.902;10.074;2022-11-02T10:54:11;8.80;;;2.58;;
29430;SDS011;16404;49.902;10.074;2022-11-02T10:56:57;12.38;;;1.83;;
29430;SDS011;16404;49.902;10.074;2022-11-02T11:02:27;16.65;;;2.10;;
29430;SDS011;16404;49.902;10.074;2022-11-02T11:05:12;8.25;;;1.70;;
29430;SDS011;16404;49.902;10.074;2022-11-02T11:07:56;14.07;;;2.35;;
29430;SDS011;16404;49.902;10.074;2022-11-02T11:13:26;9.27;;;2.10;;
29430;SDS011;16404;49.902;10.074;2022-11-02T11:16:11;14.65;;;2.42;;
29430;SDS011;16404;49.902;10.074;2022-11-02T11:18:56;13.10;;;2.67;;
29430;SDS011;16404;49.902;10.074;2022-11-02T11:21:41;14.30;;;2.30;;
29430;SDS011;16404;49.902;10.074;2022-11-02T11:29:57;7.47;;;1.85;;
29430;SDS011;16404;49.902;10.074;2022-11-02T11:32:42;5.15;;;1.58;;
29430;SDS011;16404;49.902;10.074;2022-11-02T11:35:32;11.40;;;1.88;;
29430;SDS011;16404;49.902;10.074;2022-11-02T11:38:21;5.65;;;1.40;;
29430;SDS011;16404;49.902;10.074;2022-11-02T11:41:09;10.50;;;2.10;;
29430;SDS011;16404;49.902;10.074;2022-11-02T11:43:55;14.80;;;2.67;;
29430;SDS011;16404;49.902;10.074;2022-11-02T11:46:40;10.18;;;1.98;;
29430;SDS011;16404;49.902;10.074;2022-11-02T11:52:19;14.18;;;2.72;;
29430;SDS011;16404;49.902;10.074;2022-11-02T11:55:20;10.15;;;2.15;;
29430;SDS011;16404;49.902;10.074;2022-11-02T12:03:57;11.23;;;1.58;;
29430;SDS011;16404;49.902;10.074;2022-11-02T12:06:55;6.82;;;1.27;;
29430;SDS011;16404;49.902;10.074;2022-11-02T12:09:59;5.82;;;1.45;;
29430;SDS011;16404;49.902;10.074;2022-11-02T12:13:04;8.43;;;1.30;;
29430;SDS011;16404;49.902;10.074;2022-11-02T12:25:30;6.53;;;1.42;;
29430;SDS011;16404;49.902;10.074;2022-11-02T12:28:56;9.73;;;1.75;;
29430;SDS011;16404;49.902;10.074;2022-11-02T12:32:22;7.28;;;1.27;;
29430;SDS011;16404;49.902;10.074;2022-11-02T12:35:55;6.47;;;1.83;;
29430;SDS011;16404;49.902;10.074;2022-11-02T12:50:24;9.10;;;1.67;;
29430;SDS011;16404;49.902;10.074;2022-11-02T12:56:18;6.80;;;1.33;;
29430;SDS011;16404;49.902;10.074;2022-11-02T12:59:08;6.88;;;1.35;;
29430;SDS011;16404;49.902;10.074;2022-11-02T13:05:14;8.30;;;1.50;;
29430;SDS011;16404;49.902;10.074;2022-11-02T13:08:20;12.52;;;2.13;;
29430;SDS011;16404;49.902;10.074;2022-11-02T13:11:17;6.72;;;1.30;;
29430;SDS011;16404;49.902;10.074;2022-11-02T13:14:12;10.32;;;1.67;;
29430;SDS011;16404;49.902;10.074;2022-11-02T13:17:04;7.25;;;1.58;;
29430;SDS011;16404;49.902;10.074;2022-11-02T13:19:55;9.57;;;1.65;;
29430;SDS011;16404;49.902;10.074;2022-11-02T13:22:43;5.18;;;1.30;;
29430;SDS011;16404;49.902;10.074;2022-11-02T13:25:35;11.10;;;1.30;;
29430;SDS011;16404;49.902;10.074;2022-11-02T13:28:40;7.70;;;1.40;;
29430;SDS011;16404;49.902;10.074;2022-11-02T13:31:28;9.30;;;1.52;;
29430;SDS011;16404;49.902;10.074;2022-11-02T13:34:21;5.95;;;1.83;;
29430;SDS011;16404;49.902;10.074;2022-11-02T13:37:27;6.95;;;1.38;;
29430;SDS011;16404;49.902;10.074;2022-11-02T13:40:28;9.63;;;1.55;;
29430;SDS011;16404;49.902;10.074;2022-11-02T13:49:31;7.78;;;1.58;;
29430;SDS011;16404;49.902;10.074;2022-11-02T13:52:33;8.32;;;1.55;;
29430;SDS011;16404;49.902;10.074;2022-11-02T13:55:43;8.57;;;1.65;;
29430;SDS011;16404;49.902;10.074;2022-11-02T13:59:02;9.60;;;1.77;;
29430;SDS011;16404;49.902;10.074;2022-11-02T14:01:52;10.38;;;1.27;;
29430;SDS011;16404;49.902;10.074;2022-11-02T14:04:48;6.85;;;1.50;;
29430;SDS011;16404;49.902;10.074;2022-11-02T14:10:23;9.90;;;1.85;;
29430;SDS011;16404;49.902;10.074;2022-11-02T14:13:18;7.00;;;1.60;;
29430;SDS011;16404;49.902;10.074;2022-11-02T14:20:00;12.93;;;1.92;;
29430;SDS011;16404;49.902;10.074;2022-11-02T14:26:28;7.28;;;1.23;;
29430;SDS011;16404;49.902;10.074;2022-11-02T14:32:41;13.45;;;1.50;;
29430;SDS011;16404;49.902;10.074;2022-11-02T14:35:39;4.65;;;1.08;;
29430;SDS011;16404;49.902;10.074;2022-11-02T14:45:23;8.88;;;1.60;;
29430;SDS011;16404;49.902;10.074;2022-11-02T14:48:18;16.98;;;2.78;;
29430;SDS011;16404;49.902;10.074;2022-11-02T14:51:03;38.63;;;3.72;;
29430;SDS011;16404;49.902;10.074;2022-11-02T14:54:34;29.13;;;4.88;;
29430;SDS011;16404;49.902;10.074;2022-11-02T14:57:01;19.75;;;3.20;;
29430;SDS011;16404;49.902;10.074;2022-11-02T14:59:47;34.13;;;2.47;;
29430;SDS011;16404;49.902;10.074;2022-11-02T15:02:35;9.95;;;1.60;;
29430;SDS011;16404;49.902;10.074;2022-11-02T15:08:20;9.25;;;1.98;;
29430;SDS011;16404;49.902;10.074;2022-11-02T15:26:10;19.27;;;3.63;;
29430;SDS011;16404;49.902;10.074;2022-11-02T15:29:00;21.88;;;5.50;;
29430;SDS011;16404;49.902;10.074;2022-11-02T15:31:52;27.90;;;6.63;;
29430;SDS011;16404;49.902;10.074;2022-11-02T15:34:39;31.63;;;6.68;;
29430;SDS011;16404;49.902;10.074;2022-11-02T15:37:29;24.33;;;6.38;;
29430;SDS011;16404;49.902;10.074;2022-11-02T15:40:19;14.43;;;4.30;;
29430;SDS011;16404;49.902;10.074;2022-11-02T15:46:30;28.88;;;9.65;;
29430;SDS011;16404;49.902;10.074;2022-11-02T15:52:36;28.38;;;9.45;;
29430;SDS011;16404;49.902;10.074;2022-11-02T15:58:53;18.67;;;7.60;;
29430;SDS011;16404;49.902;10.074;2022-11-02T16:04:53;26.83;;;10.80;;
29430;SDS011;16404;49.902;10.074;2022-11-02T16:07:40;21.98;;;10.70;;
29430;SDS011;16404;49.902;10.074;2022-11-02T16:10:27;20.80;;;10.45;;
29430;SDS011;16404;49.902;10.074;2022-11-02T16:13:13;24.13;;;11.00;;
29430;SDS011;16404;49.902;10.074;2022-11-02T16:16:06;26.83;;;11.52;;
29430;SDS011;16404;49.902;10.074;2022-11-02T16:18:55;28.67;;;11.05;;
29430;SDS011;16404;49.902;10.074;2022-11-02T16:21:41;30.73;;;9.43;;
29430;SDS011;16404;49.902;10.074;2022-11-02T16:24:25;25.13;;;9.45;;
29430;SDS011;16404;49.902;10.074;2022-11-02T16:27:11;25.13;;;9.35;;
29430;SDS011;16404;49.902;10.074;2022-11-02T16:29:56;19.55;;;7.97;;
29430;SDS011;16404;49.902;10.074;2022-11-02T16:32:40;16.77;;;5.60;;
29430;SDS011;16404;49.902;10.074;2022-11-02T16:35:25;12.68;;;4.18;;
29430;SDS011;16404;49.902;10.074;2022-11-02T16:38:10;14.02;;;4.25;;
29430;SDS011;16404;49.902;10.074;2022-11-02T16:40:55;13.38;;;4.07;;
29430;SDS011;16404;49.902;10.074;2022-11-02T16:43:41;20.98;;;5.07;;
29430;SDS011;16404;49.902;10.074;2022-11-02T16:46:28;11.77;;;4.82;;
29430;SDS011;16404;49.902;10.074;2022-11-02T16:49:25;14.10;;;4.80;;
29430;SDS011;16404;49.902;10.074;2022-11-02T17:10:37;23.80;;;8.60;;
29430;SDS011;16404;49.902;10.074;2022-11-02T17:13:22;24.92;;;9.35;;
29430;SDS011;16404;49.902;10.074;2022-11-02T17:16:09;20.85;;;9.43;;
29430;SDS011;16404;49.902;10.074;2022-11-02T17:18:55;41.47;;;16.35;;
29430;SDS011;16404;49.902;10.074;2022-11-02T17:21:39;28.10;;;13.77;;
29430;SDS011;16404;49.902;10.074;2022-11-02T17:24:32;27.10;;;9.98;;
29430;SDS011;16404;49.902;10.074;2022-11-02T17:27:23;20.98;;;5.55;;
29430;SDS011;16404;49.902;10.074;2022-11-02T17:36:06;16.23;;;4.30;;
29430;SDS011;16404;49.902;10.074;2022-11-02T17:38:52;14.60;;;4.28;;
29430;SDS011;16404;49.902;10.074;2022-11-02T17:41:53;12.50;;;3.38;;
29430;SDS011;16404;49.902;10.074;2022-11-02T17:44:58;12.03;;;3.70;;
29430;SDS011;16404;49.902;10.074;2022-11-02T17:48:07;12.00;;;3.40;;
29430;SDS011;16404;49.902;10.074;2022-11-02T17:50:55;12.30;;;3.28;;
29430;SDS011;16404;49.902;10.074;2022-11-02T17:53:40;16.10;;;4.03;;
29430;SDS011;16404;49.902;10.074;2022-11-02T17:56:24;17.20;;;5.88;;
29430;SDS011;16404;49.902;10.074;2022-11-02T18:01:56;21.42;;;8.77;;
29430;SDS011;16404;49.902;10.074;2022-11-02T18:04:41;22.52;;;10.13;;
29430;SDS011;16404;49.902;10.074;2022-11-02T18:07:25;21.50;;;7.00;;
29430;SDS011;16404;49.902;10.074;2022-11-02T18:10:10;13.85;;;3.88;;
29430;SDS011;16404;49.902;10.074;2022-11-02T18:12:55;7.60;;;2.78;;
29430;SDS011;16404;49.902;10.074;2022-11-02T18:15:39;10.60;;;2.65;;
29430;SDS011;16404;49.902;10.074;2022-11-02T18:18:24;10.40;;;2.95;;
29430;SDS011;16404;49.902;10.074;2022-11-02T18:21:10;17.73;;;7.55;;
29430;SDS011;16404;49.902;10.074;2022-11-02T18:23:55;18.67;;;7.78;;
29430;SDS011;16404;49.902;10.074;2022-11-02T18:26:39;13.40;;;6.78;;
29430;SDS011;16404;49.902;10.074;2022-11-02T18:29:24;12.73;;;7.30;;
29430;SDS011;16404;49.902;10.074;2022-11-02T18:32:09;22.70;;;8.57;;
29430;SDS011;16404;49.902;10.074;2022-11-02T18:34:53;20.73;;;9.00;;
29430;SDS011;16404;49.902;10.074;2022-11-02T18:37:38;40.58;;;16.85;;
29430;SDS011;16404;49.902;10.074;2022-11-02T18:40:23;40.80;;;16.27;;
29430;SDS011;16404;49.902;10.074;2022-11-02T18:43:08;34.20;;;13.98;;
29430;SDS011;16404;49.902;10.074;2022-11-02T18:45:52;40.15;;;15.40;;
29430;SDS011;16404;49.902;10.074;2022-11-02T18:48:37;36.83;;;15.50;;
29430;SDS011;16404;49.902;10.074;2022-11-02T18:51:22;45.83;;;16.75;;
29430;SDS011;16404;49.902;10.074;2022-11-02T18:56:51;19.27;;;7.25;;
29430;SDS011;16404;49.902;10.074;2022-11-02T18:59:36;16.27;;;6.28;;
29430;SDS011;16404;49.902;10.074;2022-11-02T19:02:21;20.60;;;6.72;;
29430;SDS011;16404;49.902;10.074;2022-11-02T19:05:06;21.88;;;7.93;;
29430;SDS011;16404;49.902;10.074;2022-11-02T19:08:10;21.60;;;8.60;;
29430;SDS011;16404;49.902;10.074;2022-11-02T19:11:13;20.45;;;7.72;;
29430;SDS011;16404;49.902;10.074;2022-11-02T19:13:58;16.50;;;7.82;;
29430;SDS011;16404;49.902;10.074;2022-11-02T19:16:43;15.32;;;6.95;;
29430;SDS011;16404;49.902;10.074;2022-11-02T19:19:28;10.77;;;5.30;;
29430;SDS011;16404;49.902;10.074;2022-11-02T19:22:13;9.77;;;4.80;;
29430;SDS011;16404;49.902;10.074;2022-11-02T19:24:59;14.98;;;6.03;;
29430;SDS011;16404;49.902;10.074;2022-11-02T19:27:44;14.20;;;7.60;;
29430;SDS011;16404;49.902;10.074;2022-11-02T19:30:29;14.52;;;8.00;;
29430;SDS011;16404;49.902;10.074;2022-11-02T19:33:14;15.55;;;6.72;;
29430;SDS011;16404;49.902;10.074;2022-11-02T19:35:58;15.23;;;5.90;;
29430;SDS011;16404;49.902;10.074;2022-11-02T19:38:43;11.65;;;5.57;;
29430;SDS011;16404;49.902;10.074;2022-11-02T19:41:28;13.70;;;5.60;;
29430;SDS011;16404;49.902;10.074;2022-11-02T19:44:13;14.23;;;4.93;;
29430;SDS011;16404;49.902;10.074;2022-11-02T19:46:57;13.63;;;5.50;;
29430;SDS011;16404;49.902;10.074;2022-11-02T19:49:42;14.52;;;5.88;;
29430;SDS011;16404;49.902;10.074;2022-11-02T19:52:27;17.75;;;7.07;;
29430;SDS011;16404;49.902;10.074;2022-11-02T19:55:11;17.95;;;6.97;;
29430;SDS011;16404;49.902;10.074;2022-11-02T19:57:56;17.40;;;6.32;;
29430;SDS011;16404;49.902;10.074;2022-11-02T20:00:40;12.38;;;5.90;;